Time;durP1;ratioP1;P1;durP2;ratioP2;P2;SDS_P1;SDS_P2;PMS_P1;PMS_P2;Temp;Humidity;BMP_temperature;BMP_pressure;BME280_temperature;BME280_humidity;BME280_pressure;Samples;Min_cycle;Max_cycle;Signal;HPM_P1;HPM_P2
2021/09/07 00:01:24;;;;;;;7.23;5.47;;;;;;;;;;5066606;28;20096;-80
2021/09/07 00:03:49;;;;;;;6.97;5.83;;;;;;;;;;5067003;28;20082;-81
2021/09/07 00:06:17;;;;;;;10.07;6.00;;;;;;;;;;5067323;28;20178;-83
2021/09/07 00:08:44;;;;;;;8.23;5.50;;;;;;;;;;5067234;28;20074;-81
2021/09/07 00:11:09;;;;;;;7.20;5.13;;;;;;;;;;5066003;28;20021;-85
2021/09/07 00:13:34;;;;;;;9.30;5.63;;;;;;;;;;5057052;28;20111;-83
2021/09/07 00:16:00;;;;;;;6.97;5.23;;;;;;;;;;5056640;28;20032;-83
2021/09/07 00:18:25;;;;;;;6.10;4.70;;;;;;;;;;5057477;28;20043;-86
2021/09/07 00:20:50;;;;;;;7.73;5.00;;;;;;;;;;5057875;28;20032;-82
2021/09/07 00:23:16;;;;;;;7.43;5.33;;;;;;;;;;5059489;28;20024;-82
2021/09/07 00:25:41;;;;;;;6.73;4.70;;;;;;;;;;5067656;28;20024;-83
2021/09/07 00:28:07;;;;;;;7.90;4.80;;;;;;;;;;5071498;28;20071;-84
2021/09/07 00:30:32;;;;;;;7.70;5.37;;;;;;;;;;5075673;28;20021;-84
2021/09/07 00:32:57;;;;;;;7.63;5.27;;;;;;;;;;5079711;28;20088;-81
2021/09/07 00:35:24;;;;;;;8.33;5.60;;;;;;;;;;5080001;28;20057;-82
2021/09/07 00:37:50;;;;;;;8.88;5.70;;;;;;;;;;5069013;28;20029;-82
2021/09/07 00:40:15;;;;;;;8.23;5.28;;;;;;;;;;5060064;28;20454;-81
2021/09/07 00:42:41;;;;;;;8.27;5.93;;;;;;;;;;5057795;28;20046;-83
2021/09/07 00:45:10;;;;;;;10.43;5.90;;;;;;;;;;5058057;28;20032;-82
2021/09/07 00:47:36;;;;;;;8.48;5.60;;;;;;;;;;5059387;28;20039;-83
2021/09/07 00:50:01;;;;;;;7.70;6.07;;;;;;;;;;5059545;28;20445;-84
2021/09/07 00:52:26;;;;;;;9.33;5.60;;;;;;;;;;5058767;28;20032;-83
2021/09/07 00:54:54;;;;;;;9.03;5.77;;;;;;;;;;5058131;28;20036;-84
2021/09/07 00:57:20;;;;;;;7.65;5.60;;;;;;;;;;5056335;28;20050;-85
2021/09/07 00:59:46;;;;;;;8.00;5.43;;;;;;;;;;5057807;28;20052;-84
2021/09/07 01:02:13;;;;;;;8.73;5.63;;;;;;;;;;5057568;28;20043;-83
2021/09/07 01:04:38;;;;;;;10.70;5.97;;;;;;;;;;5055188;28;20020;-84
2021/09/07 01:07:04;;;;;;;8.37;5.70;;;;;;;;;;5055948;28;20079;-81
2021/09/07 01:09:30;;;;;;;7.57;5.93;;;;;;;;;;5055936;28;20439;-85
2021/09/07 01:11:56;;;;;;;10.63;5.90;;;;;;;;;;5054675;28;20036;-83
2021/09/07 01:14:32;;;;;;;7.30;4.95;;;;;;;;;;5055790;28;20453;-85
2021/09/07 01:16:58;;;;;;;7.35;5.47;;;;;;;;;;5055103;28;20562;-82
2021/09/07 01:19:25;;;;;;;6.57;4.95;;;;;;;;;;5055981;28;20451;-83
2021/09/07 01:21:51;;;;;;;7.75;5.25;;;;;;;;;;5054809;28;20041;-82
2021/09/07 01:24:24;;;;;;;7.60;5.17;;;;;;;;;;5055829;28;20036;-85
2021/09/07 01:26:50;;;;;;;10.45;5.65;;;;;;;;;;5054937;28;20409;-84
2021/09/07 01:29:16;;;;;;;9.13;5.70;;;;;;;;;;5055708;28;20025;-83
2021/09/07 01:31:41;;;;;;;8.70;5.87;;;;;;;;;;5054598;28;20411;-84
2021/09/07 01:34:07;;;;;;;8.53;5.70;;;;;;;;;;5054620;28;20021;-84
2021/09/07 01:36:32;;;;;;;8.97;5.53;;;;;;;;;;5055658;28;20037;-82
2021/09/07 01:38:58;;;;;;;10.23;5.97;;;;;;;;;;5054912;28;20025;-84
2021/09/07 01:41:23;;;;;;;9.37;5.83;;;;;;;;;;5056072;28;20025;-85
2021/09/07 01:43:50;;;;;;;10.23;6.00;;;;;;;;;;5055807;28;20033;-83
2021/09/07 01:46:15;;;;;;;9.05;6.00;;;;;;;;;;5055726;28;20044;-84
2021/09/07 01:48:41;;;;;;;7.67;6.47;;;;;;;;;;5057656;28;20045;-82
2021/09/07 01:51:06;;;;;;;7.27;5.20;;;;;;;;;;5057686;28;20036;-84
2021/09/07 01:53:31;;;;;;;10.23;6.20;;;;;;;;;;5056615;28;20071;-82
2021/09/07 01:55:57;;;;;;;7.80;5.43;;;;;;;;;;5055946;28;20473;-83
2021/09/07 01:58:22;;;;;;;8.87;6.37;;;;;;;;;;5057834;28;20434;-83
2021/09/07 02:00:48;;;;;;;8.98;6.35;;;;;;;;;;5055653;28;20103;-83
2021/09/07 02:03:13;;;;;;;9.67;6.07;;;;;;;;;;5056118;28;20031;-84
2021/09/07 02:05:38;;;;;;;8.97;5.77;;;;;;;;;;5057061;28;20082;-82
2021/09/07 02:08:04;;;;;;;7.70;6.10;;;;;;;;;;5057001;28;20021;-83
2021/09/07 02:10:29;;;;;;;8.07;6.05;;;;;;;;;;5055332;28;20020;-84
2021/09/07 02:12:54;;;;;;;7.97;5.97;;;;;;;;;;5055131;28;20021;-83
2021/09/07 02:15:20;;;;;;;9.40;6.72;;;;;;;;;;5055556;28;20448;-83
2021/09/07 02:17:45;;;;;;;7.67;6.07;;;;;;;;;;5055804;28;20108;-82
2021/09/07 02:20:12;;;;;;;8.43;5.90;;;;;;;;;;5054689;28;20116;-82
2021/09/07 02:22:38;;;;;;;6.90;5.47;;;;;;;;;;5055822;28;20075;-82
2021/09/07 02:25:03;;;;;;;7.78;5.97;;;;;;;;;;5055811;28;20025;-82
2021/09/07 02:27:29;;;;;;;10.07;6.17;;;;;;;;;;5054100;28;20025;-83
2021/09/07 02:29:54;;;;;;;8.67;5.57;;;;;;;;;;5054334;28;20027;-82
2021/09/07 02:32:19;;;;;;;10.80;6.23;;;;;;;;;;5055283;28;20448;-81
2021/09/07 02:34:45;;;;;;;7.70;6.17;;;;;;;;;;5057178;28;20013;-82
2021/09/07 02:37:10;;;;;;;8.30;6.07;;;;;;;;;;5058059;28;20036;-83
2021/09/07 02:39:36;;;;;;;9.73;5.90;;;;;;;;;;5057798;28;20021;-82
2021/09/07 02:42:03;;;;;;;8.60;5.67;;;;;;;;;;5057540;28;20025;-82
2021/09/07 02:44:29;;;;;;;9.50;6.80;;;;;;;;;;5057578;28;20332;-83
2021/09/07 02:46:54;;;;;;;10.00;5.77;;;;;;;;;;5058305;28;20443;-82
2021/09/07 02:49:19;;;;;;;8.10;6.20;;;;;;;;;;5057383;28;20485;-83
2021/09/07 02:51:47;;;;;;;7.50;6.03;;;;;;;;;;5057712;28;20039;-84
2021/09/07 02:54:13;;;;;;;11.15;5.95;;;;;;;;;;5057516;28;20025;-82
2021/09/07 02:56:38;;;;;;;7.40;5.87;;;;;;;;;;5058771;28;20025;-82
2021/09/07 02:59:03;;;;;;;10.43;6.53;;;;;;;;;;5058768;28;20442;-83
2021/09/07 03:01:29;;;;;;;7.05;5.97;;;;;;;;;;5057556;28;20043;-84
2021/09/07 03:03:54;;;;;;;10.30;6.38;;;;;;;;;;5057288;28;20024;-85
2021/09/07 03:06:20;;;;;;;8.00;6.05;;;;;;;;;;5058492;28;20024;-81
2021/09/07 03:08:45;;;;;;;8.73;6.13;;;;;;;;;;5057200;28;20041;-82
2021/09/07 03:11:11;;;;;;;8.38;6.05;;;;;;;;;;5057025;28;20086;-83
2021/09/07 03:13:36;;;;;;;8.27;5.83;;;;;;;;;;5057530;28;20102;-83
2021/09/07 03:16:01;;;;;;;9.23;6.20;;;;;;;;;;5058392;28;20033;-84
2021/09/07 03:18:27;;;;;;;7.70;5.40;;;;;;;;;;5058140;28;20413;-84
2021/09/07 03:20:52;;;;;;;9.27;5.63;;;;;;;;;;5056702;28;20492;-84
2021/09/07 03:23:18;;;;;;;9.68;5.95;;;;;;;;;;5056926;28;20021;-84
2021/09/07 03:25:44;;;;;;;9.53;6.30;;;;;;;;;;5057075;28;20025;-86
2021/09/07 03:28:09;;;;;;;9.98;6.95;;;;;;;;;;5058315;28;20025;-84
2021/09/07 03:30:35;;;;;;;8.20;6.13;;;;;;;;;;5057889;28;20340;-83
2021/09/07 03:33:00;;;;;;;8.52;6.13;;;;;;;;;;5056779;28;20375;-85
2021/09/07 03:35:27;;;;;;;10.38;5.47;;;;;;;;;;5056510;28;20061;-84
2021/09/07 03:37:53;;;;;;;10.90;7.47;;;;;;;;;;5057803;28;20020;-83
2021/09/07 03:40:18;;;;;;;11.73;6.60;;;;;;;;;;5056486;28;20048;-84
2021/09/07 03:42:43;;;;;;;11.30;6.60;;;;;;;;;;5057411;28;20061;-84
2021/09/07 03:45:12;;;;;;;9.60;6.53;;;;;;;;;;5058324;28;20063;-81
2021/09/07 03:47:44;;;;;;;9.05;6.50;;;;;;;;;;5056084;28;20021;-81
2021/09/07 03:50:12;;;;;;;8.25;6.38;;;;;;;;;;5057581;28;20055;-81
2021/09/07 03:52:37;;;;;;;8.77;6.05;;;;;;;;;;5057034;28;20087;-82
2021/09/07 03:55:03;;;;;;;9.90;6.47;;;;;;;;;;5057590;28;20443;-84
2021/09/07 03:57:28;;;;;;;8.27;6.47;;;;;;;;;;5056091;28;20451;-83
2021/09/07 03:59:56;;;;;;;11.15;6.63;;;;;;;;;;5057528;28;20052;-83
2021/09/07 04:02:22;;;;;;;11.15;7.07;;;;;;;;;;5057055;28;20040;-86
2021/09/07 04:04:47;;;;;;;10.57;6.75;;;;;;;;;;5057140;28;20017;-83
2021/09/07 04:07:13;;;;;;;11.05;6.60;;;;;;;;;;5056590;28;20557;-83
2021/09/07 04:09:38;;;;;;;8.53;6.67;;;;;;;;;;5056267;28;20458;-85
2021/09/07 04:12:04;;;;;;;9.32;6.82;;;;;;;;;;5057196;28;20355;-82
2021/09/07 04:14:29;;;;;;;9.63;6.80;;;;;;;;;;5055952;28;20454;-83
2021/09/07 04:16:54;;;;;;;9.02;6.47;;;;;;;;;;5057044;28;20071;-82
2021/09/07 04:19:20;;;;;;;9.90;6.88;;;;;;;;;;5056124;28;20107;-82
2021/09/07 04:21:45;;;;;;;9.07;6.73;;;;;;;;;;5055795;28;20053;-85
2021/09/07 04:24:11;;;;;;;8.88;6.50;;;;;;;;;;5057146;28;20028;-82
2021/09/07 04:26:36;;;;;;;10.63;7.15;;;;;;;;;;5058573;28;20455;-83
2021/09/07 04:29:02;;;;;;;9.95;7.03;;;;;;;;;;5058152;28;20039;-83
2021/09/07 04:31:28;;;;;;;9.38;7.30;;;;;;;;;;5058316;28;20095;-82
2021/09/07 04:33:53;;;;;;;9.68;6.78;;;;;;;;;;5056811;28;20060;-83
2021/09/07 04:36:19;;;;;;;9.82;7.05;;;;;;;;;;5057704;28;20028;-85
2021/09/07 04:38:44;;;;;;;10.95;7.38;;;;;;;;;;5056901;28;20028;-83
2021/09/07 04:41:09;;;;;;;11.57;8.07;;;;;;;;;;5058489;28;20455;-83
2021/09/07 04:43:34;;;;;;;12.75;7.25;;;;;;;;;;5057659;28;20128;-82
2021/09/07 04:46:01;;;;;;;14.77;7.70;;;;;;;;;;5058088;28;20047;-83
2021/09/07 04:48:26;;;;;;;10.00;7.67;;;;;;;;;;5057986;28;20032;-83
2021/09/07 04:50:51;;;;;;;11.18;7.85;;;;;;;;;;5059027;28;20024;-82
2021/09/07 04:53:17;;;;;;;10.32;7.78;;;;;;;;;;5060348;28;20108;-83
2021/09/07 04:55:42;;;;;;;11.82;7.05;;;;;;;;;;5057267;28;20098;-82
2021/09/07 04:58:07;;;;;;;10.35;7.15;;;;;;;;;;5055580;28;20021;-85
2021/09/07 05:00:33;;;;;;;9.77;7.15;;;;;;;;;;5055932;28;20442;-83
2021/09/07 05:02:58;;;;;;;11.00;7.43;;;;;;;;;;5058368;28;20067;-82
2021/09/07 05:05:24;;;;;;;10.13;6.72;;;;;;;;;;5063597;28;20020;-83
2021/09/07 05:07:49;;;;;;;8.98;7.10;;;;;;;;;;5078854;28;20035;-82
2021/09/07 05:10:14;;;;;;;10.10;7.35;;;;;;;;;;5079067;28;20039;-81
2021/09/07 05:12:40;;;;;;;9.30;7.10;;;;;;;;;;5060571;28;20048;-82
2021/09/07 05:15:06;;;;;;;9.43;6.72;;;;;;;;;;5057844;28;20029;-83
2021/09/07 05:17:32;;;;;;;14.85;7.72;;;;;;;;;;5056089;28;20041;-83
2021/09/07 05:19:58;;;;;;;11.77;7.80;;;;;;;;;;5055540;28;20115;-83
2021/09/07 05:22:23;;;;;;;12.00;8.95;;;;;;;;;;5055736;28;20024;-81
2021/09/07 05:24:49;;;;;;;11.02;6.95;;;;;;;;;;5056278;28;20058;-84
2021/09/07 05:27:14;;;;;;;10.30;8.23;;;;;;;;;;5056421;28;20017;-84
2021/09/07 05:29:39;;;;;;;10.90;8.07;;;;;;;;;;5056999;28;20112;-84
2021/09/07 05:32:05;;;;;;;11.38;8.27;;;;;;;;;;5056674;28;20501;-85
2021/09/07 05:34:30;;;;;;;12.13;8.35;;;;;;;;;;5060569;28;20045;-83
2021/09/07 05:36:57;;;;;;;11.68;7.65;;;;;;;;;;5056024;28;20116;-83
2021/09/07 05:39:24;;;;;;;10.95;7.88;;;;;;;;;;5057975;28;20037;-85
2021/09/07 05:41:49;;;;;;;;;;;;;;;;;;5060601;28;20028;-84
2021/09/07 05:44:15;;;;;;;10.15;7.60;;;;;;;;;;5057676;28;19916;-85
2021/09/07 05:46:40;;;;;;;13.45;7.97;;;;;;;;;;5054905;28;20510;-86
2021/09/07 05:49:05;;;;;;;14.10;7.50;;;;;;;;;;5056106;28;20104;-82
2021/09/07 05:51:31;;;;;;;10.73;7.00;;;;;;;;;;5055577;28;20459;-83
2021/09/07 05:53:56;;;;;;;11.95;7.85;;;;;;;;;;5055842;28;20040;-81
2021/09/07 05:56:22;;;;;;;10.05;6.88;;;;;;;;;;5055186;28;20075;-85
2021/09/07 05:58:48;;;;;;;10.10;7.10;;;;;;;;;;5055468;28;20029;-84
2021/09/07 06:01:13;;;;;;;9.32;6.63;;;;;;;;;;5055753;28;20438;-82
2021/09/07 06:03:38;;;;;;;8.75;6.72;;;;;;;;;;5057119;28;20025;-83
2021/09/07 06:06:04;;;;;;;9.40;6.72;;;;;;;;;;5056561;28;20064;-86
2021/09/07 06:08:29;;;;;;;9.85;6.97;;;;;;;;;;5056536;28;20107;-86
2021/09/07 06:10:54;;;;;;;11.07;7.47;;;;;;;;;;5056662;28;20089;-84
2021/09/07 06:13:21;;;;;;;11.77;6.72;;;;;;;;;;5055630;28;20028;-84
2021/09/07 06:15:47;;;;;;;10.15;7.55;;;;;;;;;;5058496;28;20378;-83
2021/09/07 06:18:12;;;;;;;12.07;8.57;;;;;;;;;;5058790;28;20029;-82
2021/09/07 06:20:38;;;;;;;11.90;7.10;;;;;;;;;;5057123;28;20036;-82
2021/09/07 06:23:03;;;;;;;13.10;8.07;;;;;;;;;;5055992;28;20028;-85
2021/09/07 06:25:29;;;;;;;13.30;8.63;;;;;;;;;;5057968;28;20029;-83
2021/09/07 06:27:54;;;;;;;11.32;6.55;;;;;;;;;;5055879;28;20120;-82
2021/09/07 06:30:19;;;;;;;10.47;7.40;;;;;;;;;;5058513;28;20065;-83
2021/09/07 06:32:45;;;;;;;9.47;7.30;;;;;;;;;;5059942;28;20036;-83
2021/09/07 06:35:11;;;;;;;9.80;7.43;;;;;;;;;;5059808;28;20037;-84
2021/09/07 06:37:36;;;;;;;12.00;7.57;;;;;;;;;;5057853;28;20053;-84
2021/09/07 06:40:02;;;;;;;9.15;6.75;;;;;;;;;;5059168;28;20128;-84
2021/09/07 06:42:28;;;;;;;12.73;8.52;;;;;;;;;;5057353;28;20021;-85
2021/09/07 06:44:53;;;;;;;12.23;7.47;;;;;;;;;;5057255;28;20024;-84
2021/09/07 06:47:19;;;;;;;14.47;8.80;;;;;;;;;;5057582;28;20031;-83
2021/09/07 06:49:44;;;;;;;10.47;7.47;;;;;;;;;;5068752;28;20067;-83
2021/09/07 06:52:09;;;;;;;11.37;7.77;;;;;;;;;;5071487;28;20089;-83
2021/09/07 06:54:35;;;;;;;13.33;8.40;;;;;;;;;;5066399;28;20120;-84
2021/09/07 06:57:00;;;;;;;15.00;7.73;;;;;;;;;;5060385;28;20064;-85
2021/09/07 06:59:25;;;;;;;17.03;7.47;;;;;;;;;;5058371;28;20028;-83
2021/09/07 07:01:51;;;;;;;10.57;7.27;;;;;;;;;;5057390;28;20024;-83
2021/09/07 07:04:16;;;;;;;11.77;8.00;;;;;;;;;;5057279;28;20021;-83
2021/09/07 07:06:41;;;;;;;10.63;7.30;;;;;;;;;;5059041;28;20186;-85
2021/09/07 07:09:07;;;;;;;9.87;7.37;;;;;;;;;;5058175;28;20123;-82
2021/09/07 07:11:32;;;;;;;9.03;6.80;;;;;;;;;;5057806;28;20510;-81
2021/09/07 07:13:57;;;;;;;10.63;6.67;;;;;;;;;;5057617;28;20033;-82
2021/09/07 07:16:23;;;;;;;10.00;6.97;;;;;;;;;;5057272;28;20112;-82
2021/09/07 07:18:48;;;;;;;11.20;8.00;;;;;;;;;;5058112;28;20029;-81
2021/09/07 07:21:13;;;;;;;9.60;7.33;;;;;;;;;;5057486;28;20032;-82
2021/09/07 07:23:39;;;;;;;13.20;7.70;;;;;;;;;;5057594;28;20126;-84
2021/09/07 07:26:04;;;;;;;9.07;7.10;;;;;;;;;;5056520;28;20060;-84
2021/09/07 07:28:29;;;;;;;9.50;6.37;;;;;;;;;;5057632;28;20037;-80
2021/09/07 07:30:55;;;;;;;7.70;6.13;;;;;;;;;;5056258;28;20035;-83
2021/09/07 07:33:20;;;;;;;12.30;6.93;;;;;;;;;;5057408;28;20025;-84
2021/09/07 07:35:45;;;;;;;10.20;6.33;;;;;;;;;;5057493;28;20028;-84
2021/09/07 07:38:11;;;;;;;9.60;7.37;;;;;;;;;;5057649;28;20113;-85
2021/09/07 07:40:36;;;;;;;10.50;7.00;;;;;;;;;;5058235;28;20467;-84
2021/09/07 07:43:02;;;;;;;7.87;6.50;;;;;;;;;;5057434;28;20049;-83
2021/09/07 07:45:27;;;;;;;11.03;7.90;;;;;;;;;;5057565;28;20302;-85
2021/09/07 07:47:53;;;;;;;9.43;7.57;;;;;;;;;;5057736;28;20094;-84
2021/09/07 07:50:18;;;;;;;9.77;7.23;;;;;;;;;;5057416;28;20426;-83
2021/09/07 07:52:44;;;;;;;9.93;8.17;;;;;;;;;;5057135;28;20032;-83
2021/09/07 07:55:09;;;;;;;8.67;6.93;;;;;;;;;;5057881;28;20025;-85
2021/09/07 07:57:34;;;;;;;10.03;6.70;;;;;;;;;;5058198;28;20021;-84
2021/09/07 08:00:00;;;;;;;8.57;6.73;;;;;;;;;;5056623;28;20032;-82
2021/09/07 08:02:25;;;;;;;10.43;8.07;;;;;;;;;;5058005;28;20036;-82
2021/09/07 08:04:50;;;;;;;12.30;6.77;;;;;;;;;;5057112;28;20466;-81
2021/09/07 08:07:17;;;;;;;9.20;6.50;;;;;;;;;;5057830;28;20029;-80
2021/09/07 08:09:42;;;;;;;9.85;6.80;;;;;;;;;;5056534;28;20035;-81
2021/09/07 08:12:08;;;;;;;36.33;32.80;;;;;;;;;;5055477;28;20017;-81
2021/09/07 08:14:33;;;;;;;11.60;7.47;;;;;;;;;;5056260;28;20025;-81
2021/09/07 08:16:58;;;;;;;9.40;7.77;;;;;;;;;;5056287;28;20410;-81
2021/09/07 08:19:24;;;;;;;9.20;6.80;;;;;;;;;;5055354;28;20029;-81
2021/09/07 08:21:49;;;;;;;9.47;6.87;;;;;;;;;;5055480;28;20109;-80
2021/09/07 08:24:14;;;;;;;15.00;7.70;;;;;;;;;;5055359;28;20032;-81
2021/09/07 08:26:40;;;;;;;8.83;6.17;;;;;;;;;;5056285;28;20094;-81
2021/09/07 08:29:05;;;;;;;10.07;6.27;;;;;;;;;;5056497;28;20477;-82
2021/09/07 08:31:30;;;;;;;8.93;6.83;;;;;;;;;;5058735;28;20443;-81
2021/09/07 08:33:56;;;;;;;12.40;6.87;;;;;;;;;;5060843;28;20036;-81
2021/09/07 08:36:21;;;;;;;8.40;6.63;;;;;;;;;;5062926;28;20451;-81
2021/09/07 08:38:47;;;;;;;10.02;6.95;;;;;;;;;;5068738;28;20019;-85
2021/09/07 08:41:17;;;;;;;9.87;6.23;;;;;;;;;;5068552;28;20093;-84
2021/09/07 08:43:52;;;;;;;9.00;6.18;;;;;;;;;;5059223;28;20056;-86
2021/09/07 08:46:19;;;;;;;8.57;6.65;;;;;;;;;;5058395;28;20166;-85
2021/09/07 08:48:45;;;;;;;9.35;6.35;;;;;;;;;;5058988;28;20120;-83
2021/09/07 08:51:10;;;;;;;;;;;;;;;;;;5057068;28;20025;-83
2021/09/07 08:53:36;;;;;;;7.45;6.35;;;;;;;;;;5056957;28;19924;-84
2021/09/07 08:56:05;;;;;;;7.88;6.18;;;;;;;;;;5057550;28;20093;-86
2021/09/07 08:58:30;;;;;;;9.70;6.07;;;;;;;;;;5056792;28;20039;-85
2021/09/07 09:00:55;;;;;;;8.47;6.30;;;;;;;;;;5060929;28;20359;-82
2021/09/07 09:03:21;;;;;;;6.17;5.57;;;;;;;;;;5066704;28;20025;-82
2021/09/07 09:05:50;;;;;;;7.18;6.28;;;;;;;;;;5064703;28;20447;-82
2021/09/07 09:08:17;;;;;;;8.52;5.90;;;;;;;;;;5060334;28;20028;-83
2021/09/07 09:10:43;;;;;;;11.43;5.88;;;;;;;;;;5057051;28;20021;-83
2021/09/07 09:13:18;;;;;;;13.55;6.80;;;;;;;;;;5055352;28;20375;-83
2021/09/07 09:16:03;;;;;;;8.48;5.47;;;;;;;;;;5055367;28;20390;-84
2021/09/07 09:18:36;;;;;;;7.63;6.28;;;;;;;;;;5056327;28;20053;-82
2021/09/07 09:21:23;;;;;;;9.05;5.90;;;;;;;;;;5056110;28;20027;-82
2021/09/07 09:24:12;;;;;;;10.88;6.20;;;;;;;;;;5057668;28;20094;-81
2021/09/07 09:26:49;;;;;;;11.68;5.88;;;;;;;;;;5055627;28;20103;-81
2021/09/07 09:29:20;;;;;;;7.43;6.07;;;;;;;;;;5054604;28;20513;-82
2021/09/07 09:31:50;;;;;;;10.95;6.28;;;;;;;;;;5054429;28;20028;-81
2021/09/07 09:34:15;;;;;;;9.85;6.72;;;;;;;;;;5056759;28;20047;-81
2021/09/07 09:36:54;;;;;;;8.65;5.82;;;;;;;;;;5058813;28;20036;-83
2021/09/07 09:39:39;;;;;;;7.82;5.93;;;;;;;;;;5067932;28;20016;-82
2021/09/07 09:42:05;;;;;;;7.80;5.80;;;;;;;;;;5077177;28;20033;-84
2021/09/07 09:44:31;;;;;;;7.32;5.63;;;;;;;;;;5075489;28;20057;-83
2021/09/07 09:46:56;;;;;;;7.30;5.82;;;;;;;;;;5061188;28;20024;-84
2021/09/07 09:49:25;;;;;;;9.98;6.20;;;;;;;;;;5059129;28;20021;-84
2021/09/07 09:51:51;;;;;;;7.75;5.28;;;;;;;;;;5058208;28;20021;-84
2021/09/07 09:54:17;;;;;;;7.70;5.72;;;;;;;;;;5058221;28;20120;-80
2021/09/07 09:56:43;;;;;;;6.80;5.95;;;;;;;;;;5056104;28;20064;-82
2021/09/07 09:59:08;;;;;;;7.45;5.93;;;;;;;;;;5055612;28;20439;-84
2021/09/07 10:01:36;;;;;;;9.10;6.10;;;;;;;;;;5055558;28;20029;-83
2021/09/07 10:04:02;;;;;;;8.80;5.82;;;;;;;;;;5058388;28;20360;-83
2021/09/07 10:06:27;;;;;;;8.02;5.90;;;;;;;;;;5058879;28;20039;-85
2021/09/07 10:08:53;;;;;;;7.63;6.03;;;;;;;;;;5058804;28;20028;-84
2021/09/07 10:11:25;;;;;;;8.13;5.90;;;;;;;;;;5058320;28;20025;-84
2021/09/07 10:13:54;;;;;;;9.02;6.40;;;;;;;;;;5059507;28;20400;-83
2021/09/07 10:16:51;;;;;;;7.35;5.80;;;;;;;;;;5058626;28;20094;-84
2021/09/07 10:20:04;;;;;;;8.63;6.00;;;;;;;;;;5059171;28;20362;-84
2021/09/07 10:25:50;;;;;;;7.10;5.47;;;;;;;;;;5038314;28;20018;-83
2021/09/07 10:28:30;;;;;;;7.30;5.78;;;;;;;;;;5057282;28;20040;-85
2021/09/07 10:31:04;;;;;;;6.50;5.60;;;;;;;;;;5058478;28;20082;-84
2021/09/07 10:33:34;;;;;;;6.55;5.65;;;;;;;;;;5059682;28;20044;-85
2021/09/07 10:36:06;;;;;;;6.75;5.70;;;;;;;;;;5058523;28;20033;-86
2021/09/07 10:38:42;;;;;;;13.75;12.30;;;;;;;;;;5058832;28;20029;-86
2021/09/07 10:41:09;;;;;;;8.27;5.57;;;;;;;;;;5060456;28;20021;-87
2021/09/07 10:43:54;;;;;;;7.00;5.88;;;;;;;;;;5059631;28;20131;-86
2021/09/07 10:46:38;;;;;;;;;;;;;;;;;;5060992;28;20103;-86
2021/09/07 10:49:41;;;;;;;6.38;5.57;;;;;;;;;;5059454;28;19909;-86
2021/09/07 10:52:15;;;;;;;6.07;5.03;;;;;;;;;;5056903;28;20090;-84
2021/09/07 10:54:54;;;;;;;8.60;5.83;;;;;;;;;;5060785;28;20033;-85
2021/09/07 10:57:34;;;;;;;5.70;5.10;;;;;;;;;;5062531;28;20060;-84
2021/09/07 11:00:27;;;;;;;6.40;5.38;;;;;;;;;;5062486;28;20029;-84
2021/09/07 11:03:07;;;;;;;7.43;6.20;;;;;;;;;;5062998;28;20045;-85
2021/09/07 11:05:38;;;;;;;7.50;5.95;;;;;;;;;;5065236;28;20039;-85
2021/09/07 11:08:31;;;;;;;5.95;5.35;;;;;;;;;;5062788;28;20332;-85
2021/09/07 11:10:56;;;;;;;8.30;5.90;;;;;;;;;;5064108;28;20080;-86
2021/09/07 11:13:28;;;;;;;8.25;5.88;;;;;;;;;;5075261;28;20602;-86
2021/09/07 11:15:57;;;;;;;5.75;5.15;;;;;;;;;;5068965;28;20021;-86
2021/09/07 11:18:25;;;;;;;8.48;5.95;;;;;;;;;;5066223;28;20112;-85
2021/09/07 11:20:52;;;;;;;6.20;5.60;;;;;;;;;;5065995;28;20017;-86
2021/09/07 11:23:18;;;;;;;7.97;7.28;;;;;;;;;;5065247;28;20040;-86
2021/09/07 11:25:46;;;;;;;6.43;5.80;;;;;;;;;;5065846;28;20033;-86
2021/09/07 11:28:13;;;;;;;6.25;5.57;;;;;;;;;;5063394;28;20047;-84
2021/09/07 11:30:51;;;;;;;6.85;5.63;;;;;;;;;;5066636;28;20032;-85
2021/09/07 11:33:37;;;;;;;6.75;5.60;;;;;;;;;;5067467;28;20036;-83
2021/09/07 11:36:11;;;;;;;6.25;5.30;;;;;;;;;;5068989;28;20076;-85
2021/09/07 11:38:41;;;;;;;6.25;4.95;;;;;;;;;;5072088;28;20021;-84
2021/09/07 11:41:16;;;;;;;5.95;5.10;;;;;;;;;;5074291;28;20033;-84
2021/09/07 11:43:47;;;;;;;5.45;4.82;;;;;;;;;;5070047;28;20040;-86
2021/09/07 11:46:27;;;;;;;5.78;5.13;;;;;;;;;;5068379;28;20524;-83
2021/09/07 11:49:13;;;;;;;8.88;4.97;;;;;;;;;;5066171;28;20035;-82
2021/09/07 11:51:45;;;;;;;5.50;4.40;;;;;;;;;;5065945;28;20032;-81
2021/09/07 11:54:14;;;;;;;4.88;4.38;;;;;;;;;;5062453;28;20456;-86
2021/09/07 11:56:40;;;;;;;5.90;4.82;;;;;;;;;;5057233;28;20029;-86
2021/09/07 11:59:13;;;;;;;6.22;4.28;;;;;;;;;;5059014;28;20024;-88
2021/09/07 12:01:46;;;;;;;6.20;5.18;;;;;;;;;;5060505;28;20513;-87
2021/09/07 12:04:14;;;;;;;7.13;4.90;;;;;;;;;;5057502;28;20085;-88
2021/09/07 12:06:42;;;;;;;6.25;4.60;;;;;;;;;;5058106;28;20021;-87
2021/09/07 12:09:22;;;;;;;6.07;4.75;;;;;;;;;;5058332;28;20025;-87
2021/09/07 12:12:03;;;;;;;5.85;4.55;;;;;;;;;;5057892;28;20036;-87
2021/09/07 12:14:39;;;;;;;5.22;4.63;;;;;;;;;;5058123;28;20059;-85
2021/09/07 12:17:07;;;;;;;4.50;4.03;;;;;;;;;;5059215;28;20039;-86
2021/09/07 12:19:33;;;;;;;6.32;4.40;;;;;;;;;;5057880;28;20029;-85
2021/09/07 12:22:06;;;;;;;5.47;4.40;;;;;;;;;;5058385;28;20116;-86
2021/09/07 12:24:31;;;;;;;5.25;4.60;;;;;;;;;;5057276;28;20016;-85
2021/09/07 12:26:57;;;;;;;4.97;4.47;;;;;;;;;;5056879;28;20031;-87
2021/09/07 12:29:22;;;;;;;5.43;4.88;;;;;;;;;;5057525;28;20462;-86
2021/09/07 12:31:47;;;;;;;5.20;4.30;;;;;;;;;;5057658;28;20025;-86
2021/09/07 12:34:21;;;;;;;7.03;4.53;;;;;;;;;;5057794;28;20036;-85
2021/09/07 12:36:51;;;;;;;5.50;4.53;;;;;;;;;;5057269;28;20028;-85
2021/09/07 12:39:18;;;;;;;8.65;4.35;;;;;;;;;;5058096;28;20090;-85
2021/09/07 12:41:44;;;;;;;5.45;4.32;;;;;;;;;;5056750;28;20512;-87
2021/09/07 12:44:12;;;;;;;4.95;4.45;;;;;;;;;;5057445;28;20044;-87
2021/09/07 12:46:38;;;;;;;4.72;3.78;;;;;;;;;;5056327;28;20043;-88
2021/09/07 12:49:03;;;;;;;4.95;3.90;;;;;;;;;;5056933;28;20029;-84
2021/09/07 12:51:28;;;;;;;5.13;4.30;;;;;;;;;;5055971;28;20032;-85
2021/09/07 12:53:58;;;;;;;6.30;4.68;;;;;;;;;;5056414;28;20029;-84
2021/09/07 12:56:29;;;;;;;5.10;4.15;;;;;;;;;;5055282;28;20442;-84
2021/09/07 12:58:55;;;;;;;5.00;4.22;;;;;;;;;;5055498;28;20047;-83
2021/09/07 13:01:23;;;;;;;6.20;4.00;;;;;;;;;;5055563;28;20021;-85
2021/09/07 13:03:48;;;;;;;7.03;3.95;;;;;;;;;;5056509;28;20024;-86
2021/09/07 13:06:15;;;;;;;5.20;4.05;;;;;;;;;;5056402;28;20077;-86
2021/09/07 13:08:41;;;;;;;6.75;4.60;;;;;;;;;;5057159;28;20029;-85
2021/09/07 13:11:08;;;;;;;4.93;3.67;;;;;;;;;;5056352;28;20028;-84
2021/09/07 13:13:33;;;;;;;7.00;5.55;;;;;;;;;;5056347;28;20347;-84
2021/09/07 13:15:59;;;;;;;6.70;5.63;;;;;;;;;;5055651;28;20021;-85
2021/09/07 13:18:29;;;;;;;5.05;3.17;;;;;;;;;;5055477;28;20039;-83
2021/09/07 13:20:59;;;;;;;6.05;3.70;;;;;;;;;;5060344;28;20052;-83
2021/09/07 13:23:25;;;;;;;4.47;3.30;;;;;;;;;;5067819;28;20038;-85
2021/09/07 13:25:50;;;;;;;4.65;3.35;;;;;;;;;;5066541;28;20021;-83
2021/09/07 13:28:16;;;;;;;5.05;3.50;;;;;;;;;;5067445;28;20025;-83
2021/09/07 13:30:43;;;;;;;6.75;3.30;;;;;;;;;;5061337;28;20455;-85
2021/09/07 13:33:08;;;;;;;6.38;3.40;;;;;;;;;;5061335;28;20021;-86
2021/09/07 13:35:35;;;;;;;6.50;3.50;;;;;;;;;;5059222;28;20031;-82
2021/09/07 13:38:01;;;;;;;5.63;3.88;;;;;;;;;;5056276;28;20029;-83
2021/09/07 13:40:26;;;;;;;5.15;3.75;;;;;;;;;;5057520;28;20048;-86
2021/09/07 13:42:52;;;;;;;6.88;3.60;;;;;;;;;;5056346;28;20106;-86
2021/09/07 13:45:42;;;;;;;5.45;3.88;;;;;;;;;;5055195;28;20017;-85
2021/09/07 13:48:10;;;;;;;5.65;4.43;;;;;;;;;;5056214;28;20451;-84
2021/09/07 13:50:35;;;;;;;6.20;3.38;;;;;;;;;;5055647;28;20025;-85
2021/09/07 13:53:00;;;;;;;;;;;;;;;;;;5056149;28;20035;-84
2021/09/07 13:55:26;;;;;;;5.63;4.03;;;;;;;;;;5055523;28;19948;-83
2021/09/07 13:57:51;;;;;;;;;;;;;;;;;;5055864;28;20116;-83
2021/09/07 14:00:18;;;;;;;7.13;5.13;;;;;;;;;;5054619;28;19909;-86
2021/09/07 14:02:43;;;;;;;6.95;5.10;;;;;;;;;;5054686;28;20271;-86
2021/09/07 14:05:10;;;;;;;;;;;;;;;;;;5061035;28;20024;-83
2021/09/07 14:07:35;;;;;;;11.38;9.27;;;;;;;;;;5068355;28;19975;-84
2021/09/07 14:10:01;;;;;;;;;;;;;;;;;;5073204;28;20013;-83
2021/09/07 14:12:26;;;;;;;6.73;4.67;;;;;;;;;;5078325;28;19955;-85
2021/09/07 14:14:51;;;;;;;;;;;;;;;;;;5078426;28;20052;-85
2021/09/07 14:17:17;;;;;;;7.20;4.70;;;;;;;;;;5059735;28;19913;-87
2021/09/07 14:19:42;;;;;;;;;;;;;;;;;;5057040;28;20029;-85
2021/09/07 14:22:07;;;;;;;6.60;4.50;;;;;;;;;;5056237;28;19909;-87
2021/09/07 14:24:32;;;;;;;;;;;;;;;;;;5056442;28;20021;-86
2021/09/07 14:26:58;;;;;;;5.57;4.37;;;;;;;;;;5054892;28;19909;-86
2021/09/07 14:29:23;;;;;;;;;;;;;;;;;;5056075;28;20050;-85
2021/09/07 14:31:49;;;;;;;7.90;4.87;;;;;;;;;;5061392;28;19927;-85
2021/09/07 14:34:14;;;;;;;;;;;;;;;;;;5060393;28;20082;-86
2021/09/07 14:36:39;;;;;;;;;;;;;;;;;;5058908;28;19908;-84
2021/09/07 14:39:05;;;;;;;;;;;;;;;;;;5057553;28;19959;-84
2021/09/07 14:41:30;;;;;;;6.53;5.83;;;;;;;;;;5057009;28;20008;-83
2021/09/07 14:43:55;;;;;;;;;;;;;;;;;;5058339;28;20048;-84
2021/09/07 14:46:21;;;;;;;;;;;;;;;;;;5058499;28;19908;-83
2021/09/07 14:48:47;;;;;;;7.63;4.68;;;;;;;;;;5064958;28;19908;-84
2021/09/07 14:51:12;;;;;;;;;;;;;;;;;;5066626;28;20043;-84